createdAt,value
2022-09-28T00:01:13.408Z,96596.59
2022-09-28T00:03:40.759Z,96594.42
2022-09-28T00:06:12.211Z,96589.25
2022-09-28T00:08:40.485Z,96586.85
2022-09-28T00:11:08.965Z,96588.00
2022-09-28T00:13:37.783Z,96592.98
2022-09-28T00:16:07.779Z,96594.59
2022-09-28T00:18:35.738Z,96599.45
2022-09-28T00:23:22.574Z,96594.73
2022-09-28T00:25:49.817Z,96588.48
2022-09-28T00:28:16.863Z,96583.98
2022-09-28T00:30:44.147Z,96585.30
2022-09-28T00:33:11.168Z,96585.96
2022-09-28T00:35:38.226Z,96584.36
2022-09-28T00:38:05.363Z,96586.64
2022-09-28T00:40:32.755Z,96590.24
2022-09-28T00:43:16.281Z,96594.58
2022-09-28T00:45:43.341Z,96596.54
2022-09-28T00:48:10.462Z,96595.38
2022-09-28T00:50:37.500Z,96598.27
2022-09-28T00:53:25.875Z,96590.08
2022-09-28T00:55:57.400Z,96576.92
2022-09-28T00:58:27.863Z,96575.60
2022-09-28T01:00:58.386Z,96572.48
2022-09-28T01:03:26.624Z,96568.16
2022-09-28T01:05:53.872Z,96563.50
2022-09-28T01:08:21.570Z,96568.77
2022-09-28T01:10:49.094Z,96568.83
2022-09-28T01:13:17.585Z,96562.75
2022-09-28T01:15:59.922Z,96554.55
2022-09-28T01:18:40.257Z,96547.89
2022-09-28T01:21:17.630Z,96545.29
2022-09-28T01:23:50.419Z,96547.16
2022-09-28T01:26:38.962Z,96551.69
2022-09-28T01:29:17.934Z,96561.02
2022-09-28T01:31:50.339Z,96570.78
2022-09-28T01:34:37.991Z,96566.75
2022-09-28T01:37:06.267Z,96566.41
2022-09-28T01:39:35.416Z,96566.57
2022-09-28T01:42:08.623Z,96574.29
2022-09-28T01:44:40.106Z,96569.22
2022-09-28T01:47:10.634Z,96564.27
2022-09-28T01:49:42.810Z,96561.17
2022-09-28T01:52:45.496Z,96561.14
2022-09-28T01:55:27.087Z,96550.41
2022-09-28T01:58:07.693Z,96548.80
2022-09-28T02:00:35.397Z,96542.14
2022-09-28T02:03:07.466Z,96530.33
2022-09-28T02:05:44.225Z,96534.63
2022-09-28T02:08:32.076Z,96552.19
2022-09-28T02:11:06.089Z,96546.83
2022-09-28T02:13:41.326Z,96547.81
2022-09-28T02:16:20.021Z,96553.61
2022-09-28T02:18:49.595Z,96553.59
2022-09-28T02:21:23.050Z,96560.48
2022-09-28T02:24:04.036Z,96553.89
2022-09-28T02:26:33.531Z,96557.18
2022-09-28T02:29:00.779Z,96551.06
2022-09-28T02:31:28.238Z,96553.45
2022-09-28T02:33:56.513Z,96551.79
2022-09-28T02:36:25.302Z,96558.23
2022-09-28T02:38:52.750Z,96557.82
2022-09-28T02:41:39.879Z,96553.36
2022-09-28T02:44:17.365Z,96557.02
2022-09-28T02:46:58.646Z,96553.77
2022-09-28T02:49:40.748Z,96557.99
2022-09-28T02:52:35.038Z,96556.11
2022-09-28T02:55:29.964Z,96559.49
2022-09-28T02:58:35.079Z,96565.25
2022-09-28T03:01:08.754Z,96565.52
2022-09-28T03:03:55.673Z,96563.81
2022-09-28T03:06:33.547Z,96558.08
2022-09-28T03:09:04.781Z,96555.45
2022-09-28T03:12:18.003Z,96551.20
2022-09-28T03:15:49.134Z,96547.83
2022-09-28T03:22:21.445Z,96551.01
2022-09-28T03:24:53.695Z,96547.33
2022-09-28T03:27:23.098Z,96547.83
2022-09-28T03:29:50.357Z,96550.45
2022-09-28T03:33:04.117Z,96549.42
2022-09-28T03:35:31.897Z,96553.81
2022-09-28T03:37:58.944Z,96553.26
2022-09-28T03:40:26.846Z,96557.95
2022-09-28T03:42:54.302Z,96562.79
2022-09-28T03:45:21.434Z,96557.98
2022-09-28T03:47:49.515Z,96556.27
2022-09-28T03:50:19.099Z,96558.73
2022-09-28T03:52:46.141Z,96561.12
2022-09-28T03:55:13.189Z,96561.88
2022-09-28T03:57:40.341Z,96560.56
2022-09-28T04:00:08.550Z,96561.83
2022-09-28T04:02:41.708Z,96566.46
2022-09-28T04:05:09.572Z,96567.52
2022-09-28T04:07:37.962Z,96568.88
2022-09-28T04:10:05.510Z,96561.98
2022-09-28T04:12:32.760Z,96564.14
2022-09-28T04:14:59.916Z,96555.74
2022-09-28T04:17:27.154Z,96553.30
2022-09-28T04:19:55.029Z,96545.30
2022-09-28T04:22:42.808Z,96542.04
2022-09-28T04:25:10.021Z,96543.48
2022-09-28T04:27:56.340Z,96542.46
2022-09-28T04:30:23.564Z,96545.24
2022-09-28T04:32:53.785Z,96539.02
2022-09-28T04:35:21.145Z,96539.38
2022-09-28T04:37:48.290Z,96540.20
2022-09-28T04:40:18.772Z,96542.48
2022-09-28T04:42:58.666Z,96545.70
2022-09-28T04:45:30.201Z,96550.52
2022-09-28T04:48:08.016Z,96554.92
2022-09-28T04:50:59.663Z,96560.36
2022-09-28T04:53:27.506Z,96560.86
2022-09-28T04:55:59.266Z,96561.10
2022-09-28T04:58:26.719Z,96560.17
2022-09-28T05:00:54.868Z,96558.52
2022-09-28T05:03:48.361Z,96558.52
2022-09-28T05:06:28.309Z,96558.70
2022-09-28T05:09:00.788Z,96563.40
2022-09-28T05:11:27.858Z,96559.48
2022-09-28T05:13:55.389Z,96555.45
2022-09-28T05:16:22.710Z,96560.83
2022-09-28T05:19:08.429Z,96560.39
2022-09-28T05:21:35.805Z,96560.63
2022-09-28T05:24:07.705Z,96558.80
2022-09-28T05:26:37.365Z,96562.21
2022-09-28T05:29:05.205Z,96563.05
2022-09-28T05:31:54.943Z,96559.77
2022-09-28T05:34:34.648Z,96565.29
2022-09-28T05:37:01.803Z,96566.66
2022-09-28T05:39:30.479Z,96564.34
2022-09-28T05:41:58.153Z,96566.18
2022-09-28T05:44:26.114Z,96566.73
2022-09-28T05:46:55.034Z,96572.63
2022-09-28T05:49:23.083Z,96578.89
2022-09-28T05:51:50.122Z,96571.64
2022-09-28T05:54:17.346Z,96572.18
2022-09-28T05:56:46.672Z,96569.52
2022-09-28T05:59:17.058Z,96569.55
2022-09-28T06:01:44.510Z,96572.83
2022-09-28T06:04:12.114Z,96568.92
2022-09-28T06:06:39.816Z,96565.44
2022-09-28T06:09:06.920Z,96563.12
2022-09-28T06:11:48.610Z,96561.05
2022-09-28T06:14:31.670Z,96566.02
2022-09-28T06:16:58.757Z,96562.77
2022-09-28T06:19:25.956Z,96564.30
2022-09-28T06:22:03.544Z,96569.70
2022-09-28T06:24:33.352Z,96569.89
2022-09-28T06:27:00.907Z,96569.87
2022-09-28T06:29:29.531Z,96575.57
2022-09-28T06:32:01.239Z,96579.65
2022-09-28T06:34:30.451Z,96587.01
2022-09-28T06:36:58.711Z,96605.98
2022-09-28T06:39:25.783Z,96614.21
2022-09-28T06:41:52.918Z,96618.27
2022-09-28T06:44:22.522Z,96625.18
2022-09-28T06:47:08.211Z,96632.89
2022-09-28T06:49:55.626Z,96642.05
2022-09-28T06:52:25.850Z,96653.02
2022-09-28T06:55:06.719Z,96660.61
2022-09-28T06:57:48.917Z,96668.96
2022-09-28T07:00:22.290Z,96676.98
2022-09-28T07:02:49.539Z,96679.59
2022-09-28T07:05:50.426Z,96687.96
2022-09-28T07:08:39.630Z,96697.53
2022-09-28T07:11:37.142Z,96703.52
2022-09-28T07:14:45.749Z,96701.62
2022-09-28T07:17:14.026Z,96706.14
2022-09-28T07:19:43.447Z,96713.13
2022-09-28T07:22:18.757Z,96718.41
2022-09-28T07:24:48.328Z,96724.50
2022-09-28T07:27:39.906Z,96734.71
2022-09-28T07:30:33.483Z,96742.00
2022-09-28T07:33:09.967Z,96752.84
2022-09-28T07:36:03.172Z,96760.98
2022-09-28T07:38:33.185Z,96764.63
2022-09-28T07:41:15.185Z,96765.77
2022-09-28T07:43:51.039Z,96756.80
2022-09-28T07:46:21.492Z,96757.48
2022-09-28T07:48:55.847Z,96761.70
2022-09-28T07:51:52.869Z,96758.42
2022-09-28T07:54:28.900Z,96753.42
2022-09-28T07:57:13.776Z,96745.89
2022-09-28T08:00:13.953Z,96756.33
2022-09-28T08:02:48.504Z,96762.08
2022-09-28T08:05:24.359Z,96766.66
2022-09-28T08:07:57.872Z,96770.30
2022-09-28T08:10:27.153Z,96770.75
2022-09-28T08:13:23.458Z,96771.31
2022-09-28T08:16:12.089Z,96771.21
2022-09-28T08:19:02.229Z,96786.70
2022-09-28T08:21:47.604Z,96789.92
2022-09-28T08:24:15.801Z,96791.63
2022-09-28T08:26:46.001Z,96793.86
2022-09-28T08:29:17.254Z,96799.85
2022-09-28T08:32:09.286Z,96807.30
2022-09-28T08:34:59.877Z,96805.48
2022-09-28T08:37:45.837Z,96805.77
2022-09-28T08:40:57.222Z,96807.30
2022-09-28T08:44:14.097Z,96808.69
2022-09-28T08:47:52.696Z,96815.27
2022-09-28T08:50:54.868Z,96811.16
2022-09-28T08:53:40.470Z,96811.36
2022-09-28T08:56:50.514Z,96817.90
2022-09-28T08:59:20.111Z,96810.20
2022-09-28T09:01:58.071Z,96809.47
2022-09-28T09:04:25.573Z,96808.36
2022-09-28T09:07:55.187Z,96812.88
2022-09-28T09:10:38.727Z,96809.73
2022-09-28T09:13:19.592Z,96809.52
2022-09-28T09:16:15.863Z,96814.39
2022-09-28T09:19:17.744Z,96819.28
2022-09-28T09:22:17.808Z,96822.52
2022-09-28T09:24:50.494Z,96817.43
2022-09-28T09:27:43.748Z,96813.23
2022-09-28T09:30:22.142Z,96808.33
2022-09-28T09:33:26.687Z,96804.70
2022-09-28T09:36:38.724Z,96802.30
2022-09-28T09:40:09.027Z,96803.84
2022-09-28T09:43:40.072Z,96804.52
2022-09-28T09:46:55.454Z,96806.42
2022-09-28T09:49:39.489Z,96803.23
2022-09-28T09:52:29.729Z,96803.30
2022-09-28T09:55:03.367Z,96801.46
2022-09-28T09:58:06.584Z,96802.29
2022-09-28T10:00:44.616Z,96803.08
2022-09-28T10:03:30.339Z,96798.52
2022-09-28T10:06:12.889Z,96797.88
2022-09-28T10:08:50.783Z,96794.84
2022-09-28T10:11:19.465Z,96791.35
2022-09-28T10:13:50.199Z,96791.26
2022-09-28T10:16:38.096Z,96787.85
2022-09-28T10:19:12.132Z,96790.05
2022-09-28T10:22:00.226Z,96789.67
2022-09-28T10:24:35.911Z,96792.58
2022-09-28T10:27:08.287Z,96794.34
2022-09-28T10:29:39.271Z,96797.58
2022-09-28T10:32:21.472Z,96801.09
2022-09-28T10:34:50.974Z,96794.01
2022-09-28T10:37:19.849Z,96795.94
2022-09-28T10:40:30.363Z,96799.29
2022-09-28T10:43:22.831Z,96791.98
2022-09-28T10:45:59.769Z,96783.80
2022-09-28T10:48:45.734Z,96781.98
2022-09-28T10:51:16.569Z,96781.15
2022-09-28T10:53:58.940Z,96779.14
2022-09-28T10:56:46.824Z,96783.73
2022-09-28T10:59:38.224Z,96777.08
2022-09-28T11:02:32.320Z,96777.59
2022-09-28T11:05:06.819Z,96777.58
2022-09-28T11:07:47.285Z,96777.30
2022-09-28T11:10:27.871Z,96776.05
2022-09-28T11:12:58.172Z,96784.25
2022-09-28T11:15:31.265Z,96779.65
2022-09-28T11:18:20.010Z,96787.17
2022-09-28T11:20:47.202Z,96781.45
2022-09-28T11:23:27.219Z,96780.19
2022-09-28T11:26:06.660Z,96778.73
2022-09-28T11:28:37.186Z,96775.36
2022-09-28T11:31:09.273Z,96770.52
2022-09-28T11:34:07.428Z,96774.73
2022-09-28T11:37:22.706Z,96775.05
2022-09-28T11:39:49.994Z,96770.95
2022-09-28T11:42:17.011Z,96770.52
2022-09-28T11:44:49.278Z,96769.87
2022-09-28T11:47:41.108Z,96767.32
2022-09-28T11:50:45.328Z,96766.94
2022-09-28T11:53:35.520Z,96773.03
2022-09-28T11:56:09.007Z,96770.58
2022-09-28T11:58:57.809Z,96771.23
2022-09-28T12:01:54.919Z,96776.24
2022-09-28T12:04:57.192Z,96773.42
2022-09-28T12:07:27.999Z,96778.55
2022-09-28T12:09:57.943Z,96790.02
2022-09-28T12:12:34.686Z,96793.34
2022-09-28T12:15:15.195Z,96790.92
2022-09-28T12:17:54.779Z,96793.27
2022-09-28T12:20:27.500Z,96791.96
2022-09-28T12:23:08.271Z,96792.70
2022-09-28T12:25:42.190Z,96788.18
2022-09-28T12:28:34.321Z,96788.42
2022-09-28T12:31:57.606Z,96796.94
2022-09-28T12:35:45.117Z,96796.39
2022-09-28T12:41:19.987Z,96792.91
2022-09-28T12:44:14.556Z,96797.05
2022-09-28T12:46:49.172Z,96804.77
2022-09-28T12:52:51.065Z,96803.92
2022-09-28T12:55:40.027Z,96806.67
2022-09-28T12:58:11.788Z,96811.11
2022-09-28T13:00:52.449Z,96814.91
2022-09-28T13:03:35.268Z,96812.06
2022-09-28T13:06:30.064Z,96815.13
2022-09-28T13:09:06.149Z,96817.23
2022-09-28T13:11:54.777Z,96818.67
2022-09-28T13:14:34.047Z,96821.91
2022-09-28T13:17:12.321Z,96827.27
2022-09-28T13:20:18.591Z,96833.83
2022-09-28T13:23:05.193Z,96838.98
2022-09-28T13:25:32.342Z,96841.30
2022-09-28T13:28:04.017Z,96841.95
2022-09-28T13:30:32.687Z,96847.90
2022-09-28T13:33:01.863Z,96850.67
2022-09-28T13:35:29.241Z,96856.13
2022-09-28T13:38:18.403Z,96857.50
2022-09-28T13:41:04.197Z,96861.50
2022-09-28T13:43:34.413Z,96863.66
2022-09-28T13:46:06.530Z,96862.85
2022-09-28T13:48:45.401Z,96859.08
2022-09-28T13:51:24.635Z,96869.10
2022-09-28T13:54:03.764Z,96874.17
2022-09-28T13:56:56.235Z,96877.11
2022-09-28T13:59:28.149Z,96874.50
2022-09-28T14:02:09.614Z,96877.05
2022-09-28T14:05:20.930Z,96876.29
2022-09-28T14:11:35.172Z,96888.59
2022-09-28T14:14:17.346Z,96888.16
2022-09-28T14:17:19.718Z,96888.61
2022-09-28T14:20:04.491Z,96885.69
2022-09-28T14:22:41.778Z,96882.16
2022-09-28T14:25:28.607Z,96889.19
2022-09-28T14:28:26.355Z,96892.59
2022-09-28T14:30:55.862Z,96894.36
2022-09-28T14:33:24.853Z,96902.88
2022-09-28T14:36:02.465Z,96901.84
2022-09-28T14:39:10.049Z,96904.22
2022-09-28T14:41:42.127Z,96907.66
2022-09-28T14:44:13.688Z,96909.48
2022-09-28T14:46:45.019Z,96913.10
2022-09-28T14:49:19.445Z,96915.81
2022-09-28T14:51:56.249Z,96916.23
2022-09-28T14:54:25.714Z,96920.67
2022-09-28T14:56:52.763Z,96924.64
2022-09-28T14:59:25.961Z,96924.56
2022-09-28T15:02:19.684Z,96926.55
2022-09-28T15:04:55.529Z,96931.92
2022-09-28T15:07:28.980Z,96930.09
2022-09-28T15:09:59.199Z,96930.66
2022-09-28T15:12:27.991Z,96932.33
2022-09-28T15:15:02.554Z,96934.19
2022-09-28T15:17:34.651Z,96932.38
2022-09-28T15:20:24.048Z,96934.03
2022-09-28T15:22:57.553Z,96936.02
2022-09-28T15:25:27.011Z,96936.89
2022-09-28T15:27:58.748Z,96939.89
2022-09-28T15:30:27.082Z,96938.39
2022-09-28T15:32:57.102Z,96942.73
2022-09-28T15:35:26.413Z,96943.95
2022-09-28T15:37:54.574Z,96947.46
2022-09-28T15:40:32.262Z,96951.83
2022-09-28T15:42:59.932Z,96951.59
2022-09-28T15:45:32.409Z,96954.01
2022-09-28T15:48:19.737Z,96959.54
2022-09-28T15:51:13.813Z,96964.48
2022-09-28T15:53:50.088Z,96968.73
2022-09-28T15:56:17.159Z,96974.85
2022-09-28T15:58:44.273Z,96982.62
2022-09-28T16:01:41.661Z,96978.85
2022-09-28T16:04:38.883Z,96981.71
2022-09-28T16:07:35.022Z,96989.46
2022-09-28T16:10:23.514Z,96991.20
2022-09-28T16:13:09.494Z,97002.84
2022-09-28T16:15:43.193Z,97002.64
2022-09-28T16:18:34.875Z,97009.29
2022-09-28T16:21:49.405Z,97014.30
2022-09-28T16:24:28.446Z,97013.59
2022-09-28T16:26:57.494Z,97014.14
2022-09-28T16:29:40.307Z,97012.59
2022-09-28T16:32:26.085Z,97013.26
2022-09-28T16:35:11.859Z,97016.94
2022-09-28T16:37:42.826Z,97015.22
2022-09-28T16:40:10.773Z,97022.05
2022-09-28T16:42:39.040Z,97020.99
2022-09-28T16:45:06.829Z,97022.20
2022-09-28T16:47:36.816Z,97021.89
2022-09-28T16:50:07.568Z,97020.08
2022-09-28T16:52:56.776Z,97023.79
2022-09-28T16:55:39.947Z,97026.95
2022-09-28T16:58:07.637Z,97028.77
2022-09-28T17:00:34.652Z,97029.93
2022-09-28T17:03:02.576Z,97034.10
2022-09-28T17:05:29.732Z,97037.14
2022-09-28T17:08:01.445Z,97039.77
2022-09-28T17:10:55.690Z,97040.15
2022-09-28T17:13:31.771Z,97041.13
2022-09-28T17:16:11.469Z,97039.61
2022-09-28T17:18:40.112Z,97043.40
2022-09-28T17:21:16.070Z,97040.21
2022-09-28T17:23:44.022Z,97037.02
2022-09-28T17:26:18.257Z,97041.19
2022-09-28T17:28:45.589Z,97042.22
2022-09-28T17:31:15.448Z,97043.02
2022-09-28T17:33:43.065Z,97047.13
2022-09-28T17:36:13.108Z,97055.08
2022-09-28T17:38:40.233Z,97053.71
2022-09-28T17:41:09.027Z,97053.21
2022-09-28T17:43:36.068Z,97049.10
2022-09-28T17:46:03.854Z,97042.95
2022-09-28T17:48:33.640Z,97044.57
2022-09-28T17:51:01.507Z,97040.94
2022-09-28T17:53:28.761Z,97043.15
2022-09-28T17:55:56.091Z,97046.81
2022-09-28T17:58:23.161Z,97050.35
2022-09-28T18:00:51.334Z,97054.77
2022-09-28T18:03:22.898Z,97056.43
2022-09-28T18:05:53.865Z,97058.75
2022-09-28T18:08:21.285Z,97059.14
2022-09-28T18:10:48.339Z,97057.46
2022-09-28T18:13:15.582Z,97055.02
2022-09-28T18:15:42.965Z,97055.61
2022-09-28T18:18:10.544Z,97054.13
2022-09-28T18:20:37.851Z,97056.91
2022-09-28T18:23:05.203Z,97055.27
2022-09-28T18:25:32.251Z,97055.60
2022-09-28T18:28:00.427Z,97061.34
2022-09-28T18:30:28.085Z,97055.84
2022-09-28T18:32:55.234Z,97061.01
2022-09-28T18:35:23.129Z,97060.02
2022-09-28T18:37:50.678Z,97061.03
2022-09-28T18:40:18.000Z,97060.21
2022-09-28T18:42:45.172Z,97058.46
2022-09-28T18:45:12.212Z,97054.90
2022-09-28T18:47:39.762Z,97050.39
2022-09-28T18:50:07.434Z,97049.52
2022-09-28T18:52:40.620Z,97044.27
2022-09-28T18:55:08.287Z,97047.27
2022-09-28T18:57:36.051Z,97050.60
2022-09-28T19:00:05.725Z,97052.40
2022-09-28T19:02:33.045Z,97055.29
2022-09-28T19:05:00.170Z,97047.95
2022-09-28T19:07:27.413Z,97047.44
2022-09-28T19:09:56.913Z,97049.86
2022-09-28T19:12:24.270Z,97052.11
2022-09-28T19:14:53.775Z,97057.42
2022-09-28T19:17:21.027Z,97063.40
2022-09-28T19:19:50.327Z,97061.48
2022-09-28T19:22:21.064Z,97059.27
2022-09-28T19:24:51.282Z,97055.77
2022-09-28T19:27:18.346Z,97059.77
2022-09-28T19:29:45.748Z,97065.02
2022-09-28T19:32:12.983Z,97068.67
2022-09-28T19:34:40.188Z,97071.30
2022-09-28T19:37:07.341Z,97070.54
2022-09-28T19:39:34.899Z,97068.27
2022-09-28T19:42:02.271Z,97068.68
2022-09-28T19:44:29.872Z,97069.71
2022-09-28T19:46:57.036Z,97072.43
2022-09-28T19:49:25.542Z,97075.90
2022-09-28T19:52:12.270Z,97076.23
2022-09-28T19:54:44.643Z,97071.02
2022-09-28T19:57:13.166Z,97068.84
2022-09-28T19:59:40.468Z,97066.27
2022-09-28T20:02:07.878Z,97069.05
2022-09-28T20:04:34.973Z,97070.55
2022-09-28T20:07:02.643Z,97072.34
2022-09-28T20:09:29.822Z,97075.19
2022-09-28T20:11:57.950Z,97080.52
2022-09-28T20:14:27.917Z,97087.18
2022-09-28T20:16:59.314Z,97086.98
2022-09-28T20:19:27.670Z,97089.55
2022-09-28T20:21:59.590Z,97096.03
2022-09-28T20:24:28.950Z,97100.58
2022-09-28T20:26:56.215Z,97100.84
2022-09-28T20:29:26.118Z,97101.58
2022-09-28T20:31:56.134Z,97103.16
2022-09-28T20:34:23.284Z,97102.38
2022-09-28T20:36:50.333Z,97105.54
2022-09-28T20:39:17.602Z,97109.27
2022-09-28T20:41:46.369Z,97108.13
2022-09-28T20:44:13.415Z,97114.27
2022-09-28T20:46:40.484Z,97118.45
2022-09-28T20:49:07.927Z,97117.98
2022-09-28T20:51:35.990Z,97115.88
2022-09-28T20:54:03.038Z,97111.87
2022-09-28T20:56:40.129Z,97116.04
2022-09-28T20:59:07.521Z,97115.11
2022-09-28T21:01:35.119Z,97115.45
2022-09-28T21:04:03.456Z,97104.98
2022-09-28T21:06:32.536Z,97108.91
2022-09-28T21:08:59.657Z,97111.06
2022-09-28T21:11:27.572Z,97112.11
2022-09-28T21:13:59.014Z,97110.68
2022-09-28T21:16:27.262Z,97121.30
2022-09-28T21:18:54.619Z,97121.45
2022-09-28T21:21:22.685Z,97125.95
2022-09-28T21:23:56.587Z,97126.58
2022-09-28T21:26:25.330Z,97124.83
2022-09-28T21:28:56.621Z,97125.55
2022-09-28T21:31:28.454Z,97124.02
2022-09-28T21:33:56.648Z,97123.05
2022-09-28T21:36:23.803Z,97124.80
2022-09-28T21:38:50.859Z,97129.23
2022-09-28T21:41:17.998Z,97128.94
2022-09-28T21:43:45.148Z,97128.36
2022-09-28T21:46:12.275Z,97129.73
2022-09-28T21:48:39.547Z,97135.67
2022-09-28T21:51:09.314Z,97140.94
2022-09-28T21:53:37.246Z,97142.91
2022-09-28T21:56:05.812Z,97135.28
2022-09-28T21:58:34.273Z,97131.02
2022-09-28T22:01:15.637Z,97130.35
2022-09-28T22:03:44.292Z,97127.89
2022-09-28T22:06:11.440Z,97126.29
2022-09-28T22:08:39.765Z,97134.89
2022-09-28T22:11:10.836Z,97139.38
2022-09-28T22:13:42.788Z,97142.48
2022-09-28T22:16:12.944Z,97144.88
2022-09-28T22:18:40.261Z,97145.56
2022-09-28T22:21:10.123Z,97145.00
2022-09-28T22:23:37.945Z,97146.30
2022-09-28T22:26:35.678Z,97146.30
2022-09-28T22:29:08.777Z,97144.77
2022-09-28T22:31:40.728Z,97140.00
2022-09-28T22:34:08.478Z,97143.33
2022-09-28T22:36:35.989Z,97140.61
2022-09-28T22:39:03.453Z,97138.68
2022-09-28T22:41:30.492Z,97142.33
2022-09-28T22:44:00.117Z,97144.82
2022-09-28T22:46:28.494Z,97145.52
2022-09-28T22:48:57.083Z,97141.86
2022-09-28T22:51:24.917Z,97147.84
2022-09-28T22:53:51.835Z,97153.38
2022-09-28T22:56:19.332Z,97155.02
2022-09-28T22:58:46.792Z,97157.31
2022-09-28T23:01:15.029Z,97153.57
2022-09-28T23:03:42.922Z,97151.42
2022-09-28T23:06:11.195Z,97150.92
2022-09-28T23:08:38.257Z,97150.02
2022-09-28T23:11:05.912Z,97145.98
2022-09-28T23:13:33.052Z,97139.17
2022-09-28T23:16:02.279Z,97132.23
2022-09-28T23:18:30.946Z,97131.20
2022-09-28T23:20:59.834Z,97131.06
2022-09-28T23:23:26.915Z,97135.04
2022-09-28T23:25:54.539Z,97131.59
2022-09-28T23:28:22.213Z,97139.83
2022-09-28T23:30:49.300Z,97140.90
2022-09-28T23:33:17.326Z,97144.53
2022-09-28T23:35:44.367Z,97148.35
2022-09-28T23:38:18.247Z,97144.33
2022-09-28T23:40:47.017Z,97144.06
2022-09-28T23:43:14.781Z,97140.39
2022-09-28T23:45:45.703Z,97146.19
2022-09-28T23:48:15.053Z,97148.98
2022-09-28T23:50:43.581Z,97145.98
2022-09-28T23:56:37.270Z,97135.20
2022-09-28T23:59:05.239Z,97143.33
